createdAt,value
2022-09-28T00:01:35.820Z,37.55
2022-09-28T00:04:21.199Z,38.85
2022-09-28T00:07:05.731Z,39.97
2022-09-28T00:09:51.053Z,38.60
2022-09-28T00:12:35.930Z,37.70
2022-09-28T00:15:21.588Z,37.63
2022-09-28T00:18:06.484Z,38.08
2022-09-28T00:21:08.926Z,37.53
2022-09-28T00:24:18.041Z,38.72
2022-09-28T00:27:03.815Z,35.75
2022-09-28T00:29:48.742Z,35.65
2022-09-28T00:32:33.694Z,36.95
2022-09-28T00:35:18.726Z,36.95
2022-09-28T00:38:03.717Z,36.90
2022-09-28T00:40:48.936Z,34.83
2022-09-28T00:43:34.307Z,36.80
2022-09-28T00:46:27.449Z,35.13
2022-09-28T00:49:17.934Z,35.38
2022-09-28T00:54:51.575Z,33.63
2022-09-28T00:57:39.224Z,33.13
2022-09-28T01:00:24.335Z,35.35
2022-09-28T01:03:09.673Z,35.15
2022-09-28T01:05:57.751Z,36.03
2022-09-28T01:08:45.272Z,33.15
2022-09-28T01:11:37.165Z,35.97
2022-09-28T01:14:25.132Z,36.05
2022-09-28T01:17:16.038Z,36.72
2022-09-28T01:20:26.228Z,36.75
2022-09-28T01:23:42.349Z,34.50
2022-09-28T01:26:46.372Z,33.83
2022-09-28T01:29:52.811Z,34.08
2022-09-28T01:32:50.258Z,33.78
2022-09-28T01:35:42.594Z,33.28
2022-09-28T01:38:45.676Z,33.55
2022-09-28T01:41:35.908Z,33.05
2022-09-28T01:44:25.724Z,33.30
2022-09-28T01:47:15.868Z,33.42
2022-09-28T01:50:10.122Z,33.83
2022-09-28T01:53:28.262Z,32.28
2022-09-28T01:56:35.004Z,32.80
2022-09-28T01:59:25.345Z,33.05
2022-09-28T02:02:18.384Z,34.80
2022-09-28T02:05:16.282Z,32.72
2022-09-28T02:08:09.252Z,34.22
2022-09-28T02:11:00.869Z,31.80
2022-09-28T02:13:48.842Z,31.88
2022-09-28T02:16:41.445Z,32.92
2022-09-28T02:19:29.071Z,32.92
2022-09-28T02:22:33.064Z,32.38
2022-09-28T02:25:38.179Z,33.03
2022-09-28T02:28:23.088Z,31.40
2022-09-28T02:31:08.922Z,32.03
2022-09-28T02:33:56.988Z,31.67
2022-09-28T02:36:44.291Z,31.42
2022-09-28T02:39:29.185Z,31.60
2022-09-28T02:42:52.218Z,30.65
2022-09-28T02:45:50.255Z,30.42
2022-09-28T02:49:00.085Z,29.95
2022-09-28T02:51:56.770Z,30.20
2022-09-28T02:55:18.386Z,29.48
2022-09-28T02:58:29.584Z,30.00
2022-09-28T03:01:55.919Z,29.00
2022-09-28T03:05:11.271Z,29.58
2022-09-28T03:08:03.146Z,29.48
2022-09-28T03:11:09.716Z,31.33
2022-09-28T03:13:55.645Z,31.33
2022-09-28T03:16:46.149Z,29.88
2022-09-28T03:19:33.602Z,30.98
2022-09-28T03:22:18.655Z,30.08
2022-09-28T03:25:08.354Z,31.58
2022-09-28T03:27:55.765Z,31.10
2022-09-28T03:30:42.490Z,29.15
2022-09-28T03:33:27.487Z,29.65
2022-09-28T03:36:14.492Z,28.42
2022-09-28T03:38:59.684Z,27.77
2022-09-28T03:41:45.276Z,26.17
2022-09-28T03:44:30.078Z,27.60
2022-09-28T03:47:17.279Z,26.77
2022-09-28T03:50:02.155Z,27.10
2022-09-28T03:52:46.964Z,27.17
2022-09-28T03:55:32.057Z,28.90
2022-09-28T03:58:17.091Z,27.27
2022-09-28T04:01:05.250Z,26.90
2022-09-28T04:03:54.767Z,28.42
2022-09-28T04:06:40.607Z,26.88
2022-09-28T04:09:25.428Z,29.48
2022-09-28T04:12:12.349Z,28.08
2022-09-28T04:14:57.255Z,29.05
2022-09-28T04:17:42.589Z,29.42
2022-09-28T04:20:44.800Z,29.02
2022-09-28T04:23:30.802Z,29.05
2022-09-28T04:26:19.184Z,30.33
2022-09-28T04:29:15.680Z,29.40
2022-09-28T04:32:26.732Z,29.05
2022-09-28T04:35:14.499Z,27.02
2022-09-28T04:37:59.302Z,27.75
2022-09-28T04:40:45.059Z,26.60
2022-09-28T04:43:30.102Z,25.33
2022-09-28T04:46:14.899Z,25.65
2022-09-28T04:49:11.280Z,25.70
2022-09-28T04:52:04.413Z,27.02
2022-09-28T04:54:49.141Z,26.98
2022-09-28T04:57:35.124Z,25.90
2022-09-28T05:00:20.132Z,26.90
2022-09-28T05:03:20.374Z,26.50
2022-09-28T05:06:31.383Z,26.38
2022-09-28T05:09:26.271Z,28.10
2022-09-28T05:12:11.149Z,27.10
2022-09-28T05:14:56.413Z,24.42
2022-09-28T05:17:44.274Z,24.73
2022-09-28T05:20:56.890Z,25.33
2022-09-28T05:23:55.987Z,25.33
2022-09-28T05:26:41.353Z,25.17
2022-09-28T05:29:32.073Z,25.23
2022-09-28T05:32:55.679Z,24.50
2022-09-28T05:36:00.937Z,25.40
2022-09-28T05:38:46.770Z,24.25
2022-09-28T05:41:32.227Z,23.55
2022-09-28T05:44:18.797Z,24.73
2022-09-28T05:47:10.067Z,23.05
2022-09-28T05:50:15.774Z,21.58
2022-09-28T05:53:05.841Z,21.27
2022-09-28T05:55:50.853Z,21.55
2022-09-28T05:58:36.316Z,23.83
2022-09-28T06:01:21.524Z,21.75
2022-09-28T06:04:09.608Z,18.98
2022-09-28T06:06:55.917Z,18.38
2022-09-28T06:09:45.976Z,19.17
2022-09-28T06:12:59.843Z,17.83
2022-09-28T06:15:52.583Z,16.92
2022-09-28T06:18:50.860Z,18.33
2022-09-28T06:22:17.992Z,18.60
2022-09-28T06:25:12.866Z,17.63
2022-09-28T06:28:12.914Z,17.60
2022-09-28T06:34:45.107Z,18.17
2022-09-28T06:37:33.376Z,17.50
2022-09-28T06:40:26.026Z,18.15
2022-09-28T06:43:15.197Z,18.35
2022-09-28T06:46:26.010Z,16.65
2022-09-28T06:49:40.055Z,16.48
2022-09-28T06:52:28.224Z,16.95
2022-09-28T06:55:42.501Z,15.82
2022-09-28T06:58:33.370Z,16.42
2022-09-28T07:01:27.122Z,15.93
2022-09-28T07:09:50.265Z,16.75
2022-09-28T07:13:49.581Z,17.67
2022-09-28T07:17:12.538Z,16.80
2022-09-28T07:20:15.273Z,16.95
2022-09-28T07:23:31.853Z,16.45
2022-09-28T07:27:06.397Z,15.73
2022-09-28T07:35:20.099Z,15.82
2022-09-28T07:38:10.303Z,16.17
2022-09-28T07:41:11.292Z,15.52
2022-09-28T07:44:34.100Z,17.20
2022-09-28T07:47:28.592Z,16.95
2022-09-28T07:50:55.229Z,15.68
2022-09-28T07:54:09.339Z,15.45
2022-09-28T07:57:26.792Z,16.15
2022-09-28T08:00:50.166Z,15.82
2022-09-28T08:03:36.407Z,16.98
2022-09-28T08:06:21.727Z,17.70
2022-09-28T08:09:35.148Z,17.42
2022-09-28T08:12:40.862Z,18.27
2022-09-28T08:15:50.863Z,16.95
2022-09-28T08:19:10.521Z,17.75
2022-09-28T08:22:08.719Z,18.38
2022-09-28T08:24:55.532Z,18.90
2022-09-28T08:27:43.751Z,20.80
2022-09-28T08:30:31.107Z,23.02
2022-09-28T08:33:24.861Z,22.85
2022-09-28T08:36:38.905Z,20.13
2022-09-28T08:39:24.195Z,19.30
2022-09-28T08:42:34.063Z,18.55
2022-09-28T08:45:52.051Z,16.77
2022-09-28T08:49:20.994Z,15.95
2022-09-28T08:57:12.829Z,16.25
2022-09-28T09:00:01.322Z,16.50
2022-09-28T09:02:50.041Z,16.92
2022-09-28T09:05:49.026Z,16.92
2022-09-28T09:09:04.974Z,16.83
2022-09-28T09:12:20.621Z,17.42
2022-09-28T09:20:28.498Z,17.27
2022-09-28T09:23:55.849Z,16.50
2022-09-28T09:26:42.987Z,15.77
2022-09-28T09:30:02.531Z,15.15
2022-09-28T09:33:37.886Z,14.65
2022-09-28T09:37:01.218Z,14.98
2022-09-28T09:40:29.820Z,14.30
2022-09-28T09:44:51.752Z,13.43
2022-09-28T09:48:34.623Z,13.82
2022-09-28T09:51:29.407Z,12.65
2022-09-28T09:55:05.256Z,12.25
2022-09-28T09:58:15.787Z,12.55
2022-09-28T10:01:12.528Z,11.52
2022-09-28T10:04:39.655Z,10.30
2022-09-28T10:07:50.806Z,9.40
2022-09-28T10:10:50.704Z,9.38
2022-09-28T10:18:21.572Z,7.88
2022-09-28T10:21:43.147Z,7.53
2022-09-28T10:27:49.048Z,7.15
2022-09-28T10:30:44.452Z,7.18
2022-09-28T10:33:33.373Z,7.35
2022-09-28T10:36:19.850Z,7.75
2022-09-28T10:39:05.748Z,7.80
2022-09-28T10:41:51.819Z,7.65
2022-09-28T10:45:06.682Z,7.40
2022-09-28T10:47:55.269Z,7.70
2022-09-28T10:50:42.465Z,7.40
2022-09-28T10:53:33.652Z,7.07
2022-09-28T10:56:26.392Z,7.70
2022-09-28T11:02:38.030Z,8.07
2022-09-28T11:05:27.900Z,8.20
2022-09-28T11:08:25.294Z,9.43
2022-09-28T11:11:19.416Z,8.68
2022-09-28T11:14:43.714Z,9.20
2022-09-28T11:17:43.216Z,9.20
2022-09-28T11:20:36.426Z,9.32
2022-09-28T11:23:33.118Z,9.00
2022-09-28T11:26:44.497Z,8.25
2022-09-28T11:29:49.541Z,6.70
2022-09-28T11:33:00.232Z,6.57
2022-09-28T11:36:48.124Z,8.00
2022-09-28T11:39:53.862Z,5.68
2022-09-28T11:43:02.296Z,5.05
2022-09-28T11:45:58.653Z,4.97
2022-09-28T11:48:54.407Z,7.78
2022-09-28T11:51:42.811Z,6.43
2022-09-28T11:54:42.335Z,6.50
2022-09-28T11:57:35.678Z,7.70
2022-09-28T12:00:24.247Z,8.68
2022-09-28T12:03:36.756Z,9.90
2022-09-28T12:06:29.224Z,11.32
2022-09-28T12:09:21.687Z,11.63
2022-09-28T12:12:30.905Z,13.38
2022-09-28T12:15:21.971Z,9.45
2022-09-28T12:18:17.359Z,7.38
2022-09-28T12:21:17.452Z,9.38
2022-09-28T12:24:27.268Z,6.47
2022-09-28T12:27:26.483Z,7.07
2022-09-28T12:30:13.773Z,7.25
2022-09-28T12:33:03.457Z,7.00
2022-09-28T12:36:32.419Z,6.55
2022-09-28T12:39:53.436Z,6.60
2022-09-28T12:43:16.973Z,6.20
2022-09-28T12:46:16.399Z,5.93
2022-09-28T12:52:45.544Z,6.53
2022-09-28T12:55:36.319Z,5.95
2022-09-28T12:58:47.848Z,5.90
2022-09-28T13:01:47.341Z,5.28
2022-09-28T13:04:50.358Z,5.20
2022-09-28T13:07:49.229Z,3.83
2022-09-28T13:10:55.351Z,3.72
2022-09-28T13:14:07.638Z,3.58
2022-09-28T13:17:00.834Z,3.63
2022-09-28T13:19:45.964Z,3.55
2022-09-28T13:22:53.131Z,4.03
2022-09-28T13:25:43.302Z,3.47
2022-09-28T13:28:30.602Z,3.78
2022-09-28T13:31:22.275Z,3.75
2022-09-28T13:34:12.578Z,3.85
2022-09-28T13:37:27.543Z,3.60
2022-09-28T13:40:12.890Z,4.05
2022-09-28T13:43:20.694Z,3.85
2022-09-28T13:46:14.545Z,3.67
2022-09-28T13:49:29.655Z,4.05
2022-09-28T13:52:14.482Z,4.90
2022-09-28T13:55:19.706Z,5.10
2022-09-28T13:58:13.976Z,4.55
2022-09-28T14:00:59.401Z,3.25
2022-09-28T14:04:13.258Z,3.15
2022-09-28T14:07:19.515Z,2.80
2022-09-28T14:10:21.472Z,2.65
2022-09-28T14:13:08.704Z,2.58
2022-09-28T14:16:20.392Z,2.88
2022-09-28T14:19:17.777Z,2.70
2022-09-28T14:22:25.621Z,2.47
2022-09-28T14:25:25.843Z,2.40
2022-09-28T14:28:28.867Z,2.88
2022-09-28T14:31:26.734Z,2.63
2022-09-28T14:34:32.209Z,2.40
2022-09-28T14:37:48.789Z,2.55
2022-09-28T14:41:09.259Z,2.85
2022-09-28T14:44:08.609Z,2.95
2022-09-28T14:47:34.100Z,3.00
2022-09-28T14:50:28.227Z,3.20
2022-09-28T14:53:23.406Z,3.17
2022-09-28T14:56:08.555Z,3.00
2022-09-28T14:58:56.816Z,2.40
2022-09-28T15:01:49.963Z,2.67
2022-09-28T15:04:40.004Z,2.60
2022-09-28T15:07:28.989Z,2.80
2022-09-28T15:10:30.905Z,2.70
2022-09-28T15:13:27.285Z,2.50
2022-09-28T15:19:15.029Z,3.00
2022-09-28T15:21:59.995Z,3.13
2022-09-28T15:24:57.647Z,3.03
2022-09-28T15:28:03.892Z,3.78
2022-09-28T15:30:49.420Z,3.80
2022-09-28T15:33:53.336Z,4.15
2022-09-28T15:36:41.449Z,4.15
2022-09-28T15:39:34.141Z,4.00
2022-09-28T15:42:19.791Z,4.00
2022-09-28T15:45:13.757Z,4.47
2022-09-28T15:48:28.540Z,5.13
2022-09-28T15:51:13.400Z,5.90
2022-09-28T15:54:18.755Z,5.93
2022-09-28T15:57:03.670Z,5.63
2022-09-28T15:59:56.280Z,5.10
2022-09-28T16:03:00.786Z,5.50
2022-09-28T16:05:56.897Z,6.07
2022-09-28T16:08:43.691Z,6.15
2022-09-28T16:11:37.309Z,5.90
2022-09-28T16:14:26.499Z,6.00
2022-09-28T16:17:22.388Z,5.90
2022-09-28T16:20:36.736Z,9.88
2022-09-28T16:23:29.442Z,10.80
2022-09-28T16:26:28.033Z,12.05
2022-09-28T16:29:35.161Z,11.57
2022-09-28T16:32:26.031Z,10.95
2022-09-28T16:35:13.974Z,11.05
2022-09-28T16:38:02.929Z,11.85
2022-09-28T16:40:50.010Z,12.20
2022-09-28T16:43:35.936Z,11.63
2022-09-28T16:46:36.629Z,12.43
2022-09-28T16:49:23.202Z,12.25
2022-09-28T16:52:11.750Z,13.77
2022-09-28T16:55:38.807Z,15.40
2022-09-28T16:58:21.693Z,17.02
2022-09-28T17:01:08.108Z,16.95
2022-09-28T17:03:52.792Z,17.02
2022-09-28T17:06:38.173Z,15.63
2022-09-28T17:09:23.301Z,15.82
2022-09-28T17:12:24.200Z,17.30
2022-09-28T17:15:08.965Z,18.73
2022-09-28T17:17:55.046Z,18.85
2022-09-28T17:20:42.264Z,18.25
2022-09-28T17:23:27.105Z,16.13
2022-09-28T17:26:30.137Z,13.48
2022-09-28T17:29:16.273Z,10.55
2022-09-28T17:32:01.051Z,14.63
2022-09-28T17:34:55.933Z,11.55
2022-09-28T17:37:50.367Z,13.52
2022-09-28T17:40:35.547Z,13.82
2022-09-28T17:43:21.577Z,11.73
2022-09-28T17:46:28.542Z,12.18
2022-09-28T17:49:13.834Z,11.77
2022-09-28T17:51:58.824Z,11.95
2022-09-28T17:54:43.822Z,12.15
2022-09-28T17:57:28.594Z,13.02
2022-09-28T18:00:13.842Z,12.30
2022-09-28T18:02:58.419Z,11.55
2022-09-28T18:05:44.580Z,9.63
2022-09-28T18:08:29.968Z,10.40
2022-09-28T18:11:16.705Z,8.45
2022-09-28T18:14:01.316Z,7.82
2022-09-28T18:16:46.297Z,7.82
2022-09-28T18:19:32.484Z,7.25
2022-09-28T18:22:17.473Z,7.63
2022-09-28T18:25:04.044Z,7.40
2022-09-28T18:27:49.017Z,7.35
2022-09-28T18:30:37.465Z,7.20
2022-09-28T18:33:22.569Z,8.10
2022-09-28T18:36:07.818Z,7.45
2022-09-28T18:38:52.811Z,8.05
2022-09-28T18:41:37.737Z,7.65
2022-09-28T18:44:22.869Z,8.43
2022-09-28T18:47:07.729Z,9.43
2022-09-28T18:49:52.761Z,11.80
2022-09-28T18:52:39.352Z,11.73
2022-09-28T18:55:24.160Z,15.10
2022-09-28T18:58:10.623Z,18.00
2022-09-28T19:01:08.492Z,20.45
2022-09-28T19:04:01.814Z,20.40
2022-09-28T19:06:51.155Z,22.25
2022-09-28T19:09:35.855Z,23.48
2022-09-28T19:12:20.800Z,23.27
2022-09-28T19:15:06.258Z,24.30
2022-09-28T19:17:51.464Z,24.40
2022-09-28T19:20:36.218Z,27.38
2022-09-28T19:23:23.999Z,27.33
2022-09-28T19:26:12.752Z,26.23
2022-09-28T19:28:58.177Z,28.40
2022-09-28T19:31:43.217Z,30.15
2022-09-28T19:34:29.481Z,35.10
2022-09-28T19:37:14.197Z,35.25
2022-09-28T19:39:58.941Z,37.55
2022-09-28T19:42:44.066Z,40.70
2022-09-28T19:45:30.203Z,34.65
2022-09-28T19:48:14.934Z,30.90
2022-09-28T19:51:05.847Z,26.65
2022-09-28T19:53:50.896Z,22.13
2022-09-28T19:56:35.719Z,19.98
2022-09-28T19:59:21.037Z,19.67
2022-09-28T20:02:07.663Z,17.73
2022-09-28T20:04:52.229Z,16.58
2022-09-28T20:07:39.168Z,15.75
2022-09-28T20:10:23.899Z,18.75
2022-09-28T20:13:09.027Z,19.08
2022-09-28T20:15:55.371Z,19.88
2022-09-28T20:19:02.972Z,20.23
2022-09-28T20:21:48.260Z,22.40
2022-09-28T20:24:32.956Z,24.23
2022-09-28T20:27:17.813Z,25.63
2022-09-28T20:30:03.986Z,24.75
2022-09-28T20:32:49.688Z,22.13
2022-09-28T20:35:34.886Z,19.67
2022-09-28T20:38:20.739Z,16.33
2022-09-28T20:41:07.875Z,15.65
2022-09-28T20:43:55.150Z,13.63
2022-09-28T20:46:39.866Z,12.52
2022-09-28T20:49:26.490Z,12.45
2022-09-28T20:52:11.605Z,10.50
2022-09-28T20:54:56.424Z,10.13
2022-09-28T20:57:41.431Z,9.55
2022-09-28T21:00:26.146Z,8.32
2022-09-28T21:03:11.395Z,7.78
2022-09-28T21:05:56.277Z,7.82
2022-09-28T21:08:43.694Z,7.32
2022-09-28T21:11:29.418Z,7.93
2022-09-28T21:14:13.893Z,7.55
2022-09-28T21:16:58.625Z,10.13
2022-09-28T21:19:43.509Z,10.23
2022-09-28T21:22:28.699Z,10.50
2022-09-28T21:25:13.797Z,14.52
2022-09-28T21:27:58.362Z,12.68
2022-09-28T21:30:45.075Z,11.68
2022-09-28T21:33:29.912Z,9.48
2022-09-28T21:36:14.821Z,8.40
2022-09-28T21:38:59.895Z,7.55
2022-09-28T21:41:45.009Z,6.82
2022-09-28T21:44:30.371Z,7.03
2022-09-28T21:47:14.955Z,7.38
2022-09-28T21:50:00.002Z,6.95
2022-09-28T21:52:44.993Z,7.00
2022-09-28T21:55:30.113Z,8.00
2022-09-28T21:58:15.009Z,8.02
2022-09-28T22:01:11.429Z,8.68
2022-09-28T22:03:56.569Z,7.75
2022-09-28T22:06:41.657Z,7.63
2022-09-28T22:09:26.627Z,7.53
2022-09-28T22:12:11.582Z,7.20
2022-09-28T22:14:56.389Z,6.65
2022-09-28T22:17:41.411Z,6.53
2022-09-28T22:20:26.584Z,6.32
2022-09-28T22:23:11.393Z,6.78
2022-09-28T22:26:01.962Z,6.80
2022-09-28T22:28:52.141Z,6.10
2022-09-28T22:31:39.752Z,5.85
2022-09-28T22:34:26.733Z,5.57
2022-09-28T22:37:11.378Z,5.70
2022-09-28T22:39:56.471Z,6.22
2022-09-28T22:42:42.243Z,7.75
2022-09-28T22:45:27.253Z,7.82
2022-09-28T22:48:12.575Z,8.65
2022-09-28T22:50:57.455Z,8.75
2022-09-28T22:53:42.673Z,9.88
2022-09-28T22:56:28.413Z,8.25
2022-09-28T22:59:13.311Z,8.00
2022-09-28T23:01:58.242Z,7.63
2022-09-28T23:04:43.520Z,7.75
2022-09-28T23:07:28.136Z,6.53
2022-09-28T23:10:13.259Z,7.70
2022-09-28T23:12:58.317Z,7.68
2022-09-28T23:15:43.065Z,7.25
2022-09-28T23:18:30.759Z,7.32
2022-09-28T23:21:18.038Z,7.50
2022-09-28T23:24:03.097Z,7.00
2022-09-28T23:26:47.967Z,7.47
2022-09-28T23:29:33.095Z,6.82
2022-09-28T23:32:18.051Z,7.03
2022-09-28T23:35:03.076Z,7.32
2022-09-28T23:37:51.119Z,7.30
2022-09-28T23:40:35.945Z,8.30
2022-09-28T23:43:20.959Z,7.88
2022-09-28T23:46:06.089Z,7.53
2022-09-28T23:48:51.031Z,8.05
2022-09-28T23:51:35.996Z,7.32
2022-09-28T23:54:20.685Z,7.40
2022-09-28T23:57:05.532Z,6.90
2022-09-28T23:59:50.348Z,7.05
